Airport View

Enter AWOS ICAO identifier for current METAR.

ex. KFNL

KDCM 171215Z AUTO 36012G18KT 10SM BKN065 05/M01 A3010 RMK AO2 LTG DSNT SE

17 Nov 2019 12:22

Frequency: 120.975

Phone: 803-385-2011

Other Area AWOS: KUZA - KLKR - KAKH - KCLT

TAF KCLT 171129Z 1712/1818 02010G17KT P6SM SCT035 BKN060 FM171900 02007KT P6SM SCT080 BKN250 FM180700 35003KT P6SM BKN040 FM181100 03003KT P6SM BKN025 FM181700 23003KT P6SM SCT030